Time;durP1;ratioP1;P1;durP2;ratioP2;P2;SDS_P1;SDS_P2;PMS_P1;PMS_P2;Temp;Humidity;BMP_temperature;BMP_pressure;BME280_temperature;BME280_humidity;BME280_pressure;Samples;Min_cycle;Max_cycle;Signal;HPM_P1;HPM_P2
2023/09/30 00:01:47;;;;;;;13.70;9.20;;;19.30;49.60;;;;;;5004428;28;114593;-82
2023/09/30 00:04:14;;;;;;;11.63;8.90;;;19.30;50.40;;;;;;5022577;28;114469;-82
2023/09/30 00:06:42;;;;;;;12.43;9.30;;;19.40;50.90;;;;;;5021934;28;114295;-82
2023/09/30 00:09:09;;;;;;;11.32;8.73;;;19.40;50.40;;;;;;5007583;28;115866;-82
2023/09/30 00:11:36;;;;;;;11.43;8.60;;;19.40;50.80;;;;;;5007484;28;116319;-83
2023/09/30 00:14:04;;;;;;;13.35;9.02;;;19.50;50.00;;;;;;5026633;28;114115;-81
2023/09/30 00:16:31;;;;;;;10.90;8.40;;;19.60;50.40;;;;;;5026082;28;114331;-82
2023/09/30 00:18:58;;;;;;;13.07;8.40;;;19.60;50.80;;;;;;5003505;28;116473;-82
2023/09/30 00:21:26;;;;;;;11.80;8.77;;;19.50;50.00;;;;;;5004748;28;115769;-82
2023/09/30 00:23:53;;;;;;;10.57;8.70;;;19.50;49.90;;;;;;5005931;28;114132;-81
2023/09/30 00:26:22;;;;;;;11.38;8.40;;;19.40;50.30;;;;;;5005313;28;114371;-81
2023/09/30 00:28:49;;;;;;;12.73;8.63;;;19.40;50.00;;;;;;5005122;28;115132;-81
2023/09/30 00:31:16;;;;;;;11.23;8.75;;;19.50;50.00;;;;;;5004262;28;114674;-82
2023/09/30 00:33:43;;;;;;;9.82;8.35;;;19.50;50.00;;;;;;5005114;28;114045;-82
2023/09/30 00:36:11;;;;;;;11.15;8.57;;;19.60;50.40;;;;;;5006176;28;114381;-82
2023/09/30 00:38:39;;;;;;;11.45;8.38;;;19.60;50.30;;;;;;5004221;28;114979;-82
2023/09/30 00:41:07;;;;;;;10.75;8.77;;;19.50;50.10;;;;;;5004189;28;114903;-82
2023/09/30 00:43:34;;;;;;;10.43;8.68;;;19.30;49.90;;;;;;5006032;28;114201;-82
2023/09/30 00:46:10;;;;;;;11.18;8.48;;;19.30;49.10;;;;;;5005155;28;114188;-82
2023/09/30 00:48:37;;;;;;;9.68;8.55;;;19.30;48.90;;;;;;5005228;28;114974;-82
2023/09/30 00:51:04;;;;;;;13.90;8.57;;;19.30;50.20;;;;;;5003626;28;116876;-81
2023/09/30 00:53:31;;;;;;;12.10;8.35;;;19.30;49.10;;;;;;4987189;28;114191;-82
2023/09/30 00:55:59;;;;;;;11.43;7.60;;;19.30;50.40;;;;;;4987300;28;114272;-81
2023/09/30 00:58:28;;;;;;;10.57;8.43;;;19.30;50.50;;;;;;5005032;28;114722;-83
2023/09/30 01:00:56;;;;;;;11.18;8.07;;;19.30;50.70;;;;;;5003860;28;114893;-83
2023/09/30 01:03:23;;;;;;;13.77;8.20;;;19.30;50.10;;;;;;5005788;28;114565;-82
2023/09/30 01:05:50;;;;;;;11.10;8.52;;;19.30;49.70;;;;;;5005481;28;114234;-81
2023/09/30 01:08:17;;;;;;;9.98;8.23;;;19.30;49.90;;;;;;4987148;28;115334;-81
2023/09/30 01:10:44;;;;;;;11.77;8.50;;;19.30;50.70;;;;;;5003638;28;115156;-83
2023/09/30 01:13:12;;;;;;;11.48;7.88;;;19.40;50.10;;;;;;4988054;28;114464;-82
2023/09/30 01:15:39;;;;;;;12.50;7.88;;;19.50;50.70;;;;;;5005503;28;114369;-83
2023/09/30 01:18:06;;;;;;;12.10;7.93;;;19.50;50.00;;;;;;5002601;28;116563;-83
2023/09/30 01:20:33;;;;;;;10.45;8.13;;;19.50;49.50;;;;;;4986253;28;114822;-82
2023/09/30 01:23:00;;;;;;;10.20;7.85;;;19.50;49.70;;;;;;5004185;28;114265;-82
2023/09/30 01:25:27;;;;;;;12.98;7.88;;;19.50;49.30;;;;;;5004084;28;114577;-81
2023/09/30 01:27:54;;;;;;;14.00;8.50;;;19.50;49.50;;;;;;5003205;28;115022;-82
2023/09/30 01:30:23;;;;;;;13.30;8.57;;;19.50;49.10;;;;;;4986568;28;117819;-82
2023/09/30 01:32:50;;;;;;;10.73;7.70;;;19.50;49.90;;;;;;4987699;28;114207;-83
2023/09/30 01:35:17;;;;;;;9.50;8.05;;;19.50;50.00;;;;;;5005133;28;114329;-82
2023/09/30 01:37:44;;;;;;;10.93;7.55;;;19.50;50.20;;;;;;5003189;28;114941;-81
2023/09/30 01:40:11;;;;;;;11.02;8.43;;;19.60;49.90;;;;;;5004339;28;114603;-81
2023/09/30 01:42:39;;;;;;;12.27;8.15;;;19.60;49.40;;;;;;5004470;28;114093;-82
2023/09/30 01:45:06;;;;;;;10.57;7.50;;;19.60;48.80;;;;;;4992219;28;114315;-81
2023/09/30 01:47:33;;;;;;;11.98;8.48;;;19.50;50.10;;;;;;5022963;28;115527;-82
2023/09/30 01:50:01;;;;;;;11.27;8.48;;;19.50;49.50;;;;;;5024099;28;115183;-81
2023/09/30 01:52:28;;;;;;;12.65;7.97;;;19.50;49.70;;;;;;5024863;28;114061;-81
2023/09/30 01:54:55;;;;;;;11.38;8.27;;;19.50;50.10;;;;;;5024884;27;114038;-82
2023/09/30 01:57:22;;;;;;;11.82;8.35;;;19.60;50.10;;;;;;5022939;28;114939;-81
2023/09/30 01:59:49;;;;;;;11.65;8.05;;;19.60;50.20;;;;;;5023123;28;114659;-81
2023/09/30 02:02:17;;;;;;;13.80;9.27;;;19.60;50.20;;;;;;5024687;28;114152;-82
2023/09/30 02:04:44;;;;;;;13.43;8.68;;;19.70;49.90;;;;;;5023409;28;114974;-83
2023/09/30 02:07:11;;;;;;;13.57;8.57;;;19.70;49.60;;;;;;5025119;27;115079;-83
2023/09/30 02:09:39;;;;;;;11.32;8.70;;;19.70;49.70;;;;;;4993800;28;117126;-82
2023/09/30 02:12:07;;;;;;;11.25;9.00;;;19.70;49.50;;;;;;5025832;28;114352;-83
2023/09/30 02:14:35;;;;;;;15.02;10.18;;;19.70;49.80;;;;;;5023934;28;114581;-81
2023/09/30 02:17:02;;;;;;;16.25;9.60;;;19.70;49.30;;;;;;5023981;27;114914;-81
2023/09/30 02:19:31;;;;;;;13.23;8.40;;;19.70;49.10;;;;;;5041617;27;115160;-81
2023/09/30 02:21:59;;;;;;;10.13;8.10;;;19.70;49.60;;;;;;5050009;27;114231;-82
2023/09/30 02:24:27;;;;;;;13.80;9.02;;;19.70;50.00;;;;;;5047708;27;114318;-81
2023/09/30 02:26:54;;;;;;;12.15;8.57;;;19.70;49.30;;;;;;5044125;27;115016;-81
2023/09/30 02:29:22;;;;;;;13.00;8.05;;;19.70;49.80;;;;;;5025388;27;114868;-83
2023/09/30 02:31:49;;;;;;;10.65;8.20;;;19.80;49.90;;;;;;5043171;27;114170;-83
2023/09/30 02:34:16;;;;;;;11.60;8.18;;;19.80;50.00;;;;;;5044378;27;114208;-82
2023/09/30 02:36:44;;;;;;;12.02;8.40;;;19.80;49.90;;;;;;5043857;27;114787;-83
2023/09/30 02:39:11;;;;;;;11.63;8.30;;;19.80;49.80;;;;;;5008764;27;117313;-82
2023/09/30 02:41:38;;;;;;;12.95;8.73;;;19.80;49.90;;;;;;5044554;27;114210;-82
2023/09/30 02:44:05;;;;;;;10.65;8.40;;;19.80;49.60;;;;;;5026683;27;114219;-82
2023/09/30 02:46:32;;;;;;;12.73;8.07;;;19.80;49.80;;;;;;5025384;27;117075;-83
2023/09/30 02:49:02;;;;;;;10.70;8.20;;;19.80;49.50;;;;;;5025765;27;114769;-83
2023/09/30 02:51:31;;;;;;;11.88;9.35;;;19.80;49.50;;;;;;5026362;27;114479;-82
2023/09/30 02:53:58;;;;;;;11.43;8.35;;;19.80;49.80;;;;;;5044378;27;114252;-83
2023/09/30 02:56:28;;;;;;;12.95;8.13;;;19.80;50.00;;;;;;5043112;27;114987;-83
2023/09/30 02:58:55;;;;;;;18.08;10.13;;;19.80;49.80;;;;;;5043562;27;114649;-82
2023/09/30 03:01:22;;;;;;;14.55;10.05;;;19.80;49.00;;;;;;5044223;27;114194;-83
2023/09/30 03:03:49;;;;;;;11.88;8.40;;;19.70;48.60;;;;;;5044217;27;114273;-83
2023/09/30 03:06:18;;;;;;;11.27;8.60;;;19.50;49.70;;;;;;5043335;27;114980;-81
2023/09/30 03:08:46;;;;;;;12.90;8.68;;;19.50;50.10;;;;;;5025449;27;114620;-81
2023/09/30 03:11:13;;;;;;;12.13;8.82;;;19.50;49.80;;;;;;5009373;27;114517;-83
2023/09/30 03:13:42;;;;;;;13.13;8.50;;;19.50;49.70;;;;;;5009047;27;114304;-81
2023/09/30 03:16:10;;;;;;;12.75;8.55;;;19.40;49.80;;;;;;5043124;27;114865;-83
2023/09/30 03:18:37;;;;;;;10.18;8.07;;;19.40;49.20;;;;;;5042771;27;114626;-83
2023/09/30 03:21:13;;;;;;;13.68;8.75;;;19.30;50.20;;;;;;5043227;27;114000;-83
2023/09/30 03:23:40;;;;;;;14.48;8.13;;;19.30;49.70;;;;;;5025894;27;114354;-82
2023/09/30 03:26:09;;;;;;;15.80;9.00;;;19.30;50.10;;;;;;5042996;27;114967;-83
2023/09/30 03:28:38;;;;;;;12.73;8.48;;;19.30;49.60;;;;;;5024504;27;115790;-83
2023/09/30 03:31:05;;;;;;;15.20;8.98;;;19.40;50.40;;;;;;5025630;27;114896;-83
2023/09/30 03:33:33;;;;;;;12.38;8.60;;;19.30;50.30;;;;;;4991922;27;114320;-82
2023/09/30 03:36:01;;;;;;;11.27;7.95;;;19.30;50.70;;;;;;4991003;27;117041;-83
2023/09/30 03:38:29;;;;;;;12.63;8.52;;;19.30;49.70;;;;;;5008881;27;114856;-83
2023/09/30 03:40:57;;;;;;;11.90;8.05;;;19.30;50.30;;;;;;5025636;27;114187;-81
2023/09/30 03:43:25;;;;;;;9.77;7.38;;;19.20;50.00;;;;;;5045486;27;114410;-82
2023/09/30 03:45:53;;;;;;;11.60;7.80;;;19.00;49.80;;;;;;5045906;27;115157;-82
2023/09/30 03:48:20;;;;;;;12.32;8.00;;;18.80;50.00;;;;;;5028335;27;114542;-83
2023/09/30 03:50:48;;;;;;;12.25;7.82;;;18.70;51.00;;;;;;5029113;27;114389;-83
2023/09/30 03:53:15;;;;;;;9.30;7.28;;;18.70;51.10;;;;;;5047058;27;114057;-82
2023/09/30 03:55:42;;;;;;;10.75;7.38;;;18.80;51.50;;;;;;5046317;27;115466;-81
2023/09/30 03:58:09;;;;;;;11.05;7.25;;;18.80;51.80;;;;;;5046237;27;115065;-82
2023/09/30 04:00:36;;;;;;;11.07;7.55;;;18.90;50.80;;;;;;5047049;27;114126;-80
2023/09/30 04:03:03;;;;;;;10.13;7.68;;;18.90;51.20;;;;;;5012809;27;114476;-81
2023/09/30 04:05:36;;;;;;;13.75;7.75;;;19.00;51.50;;;;;;5046137;27;115483;-82
2023/09/30 04:08:04;;;;;;;12.65;8.02;;;19.10;51.40;;;;;;5026910;27;115135;-81
2023/09/30 04:10:34;;;;;;;16.90;8.45;;;19.20;51.40;;;;;;5046149;27;114143;-81
2023/09/30 04:13:02;;;;;;;13.55;8.45;;;19.30;50.50;;;;;;5028674;27;114385;-82
2023/09/30 04:15:30;;;;;;;12.32;8.68;;;19.30;50.40;;;;;;5028038;27;114891;-81
2023/09/30 04:17:58;;;;;;;12.38;8.48;;;19.30;50.60;;;;;;5027857;27;114598;-81
2023/09/30 04:20:26;;;;;;;12.20;8.07;;;19.20;50.80;;;;;;5046750;27;114186;-81
2023/09/30 04:22:57;;;;;;;13.00;7.80;;;19.30;51.10;;;;;;5046558;27;114335;-81
2023/09/30 04:25:25;;;;;;;12.05;7.60;;;19.30;51.10;;;;;;5045770;27;115328;-81
2023/09/30 04:27:52;;;;;;;11.05;7.55;;;19.30;51.30;;;;;;5027762;27;115844;-80
2023/09/30 04:30:22;;;;;;;9.65;7.30;;;19.30;51.20;;;;;;5046643;27;114183;-81
2023/09/30 04:32:49;;;;;;;12.10;8.77;;;19.40;51.20;;;;;;5046490;27;114125;-82
2023/09/30 04:35:17;;;;;;;9.18;7.78;;;19.50;50.90;;;;;;5026840;27;117905;-82
2023/09/30 04:37:45;;;;;;;14.48;8.68;;;19.50;51.00;;;;;;5045635;27;114704;-83
2023/09/30 04:40:15;;;;;;;10.82;7.88;;;19.50;50.90;;;;;;5011961;27;114622;-81
2023/09/30 04:42:44;;;;;;;14.77;8.32;;;19.60;50.90;;;;;;5050407;27;114142;-81
2023/09/30 04:45:12;;;;;;;9.60;7.25;;;19.60;50.90;;;;;;5049383;27;114029;-81
2023/09/30 04:47:39;;;;;;;10.48;8.45;;;19.60;50.90;;;;;;5028619;27;114638;-82
2023/09/30 04:50:07;;;;;;;11.18;7.82;;;19.70;50.80;;;;;;5028558;27;114382;-82
2023/09/30 04:52:35;;;;;;;11.07;7.78;;;19.70;50.80;;;;;;5046659;27;114338;-81
2023/09/30 04:55:04;;;;;;;11.55;8.63;;;19.80;50.80;;;;;;5012959;27;114934;-81
2023/09/30 04:57:34;;;;;;;10.60;8.20;;;19.80;50.70;;;;;;5014787;27;115071;-82
2023/09/30 05:00:01;;;;;;;13.20;8.40;;;19.80;50.80;;;;;;5045724;27;114882;-82
2023/09/30 05:02:28;;;;;;;11.07;7.90;;;19.80;50.80;;;;;;5011413;27;114420;-82
2023/09/30 05:04:55;;;;;;;13.32;8.77;;;19.70;50.90;;;;;;5027329;27;117781;-82
2023/09/30 05:07:22;;;;;;;13.10;8.13;;;19.80;51.00;;;;;;4993750;27;118591;-83
2023/09/30 05:09:49;;;;;;;14.73;10.05;;;19.80;50.90;;;;;;5027985;27;114211;-81
2023/09/30 05:12:17;;;;;;;13.27;8.88;;;19.80;50.90;;;;;;5027857;27;114386;-82
2023/09/30 05:14:44;;;;;;;10.35;8.23;;;19.70;51.00;;;;;;5010015;27;116169;-81
2023/09/30 05:17:11;;;;;;;11.75;8.35;;;19.70;51.00;;;;;;5010794;27;114733;-81
2023/09/30 05:19:39;;;;;;;13.25;9.07;;;19.80;51.00;;;;;;5027169;27;114886;-81
2023/09/30 05:22:06;;;;;;;11.60;9.20;;;19.80;51.20;;;;;;5046031;27;114334;-81
2023/09/30 05:24:35;;;;;;;12.15;8.43;;;19.80;51.30;;;;;;5026716;27;115508;-81
2023/09/30 05:27:03;;;;;;;15.10;11.77;;;19.80;51.20;;;;;;5044940;27;114687;-81
2023/09/30 05:29:33;;;;;;;14.60;9.57;;;19.80;51.70;;;;;;5045804;27;114011;-81
2023/09/30 05:32:00;;;;;;;16.58;10.20;;;19.70;51.50;;;;;;5027274;27;114496;-83
2023/09/30 05:34:27;;;;;;;13.13;9.55;;;19.60;51.70;;;;;;5026759;27;115516;-83
2023/09/30 05:36:55;;;;;;;14.07;10.23;;;19.70;51.60;;;;;;5044485;27;116143;-82
2023/09/30 05:39:22;;;;;;;15.60;11.40;;;19.60;51.60;;;;;;5027370;27;114356;-83
2023/09/30 05:41:49;;;;;;;14.15;9.55;;;19.60;51.70;;;;;;5027671;27;114446;-82
2023/09/30 05:44:16;;;;;;;16.15;9.98;;;19.50;51.70;;;;;;5026355;27;114989;-81
2023/09/30 05:46:43;;;;;;;18.83;11.50;;;19.50;51.80;;;;;;5025524;27;115384;-81
2023/09/30 05:49:11;;;;;;;14.48;9.77;;;19.60;52.10;;;;;;5026783;27;114146;-82
2023/09/30 05:51:38;;;;;;;17.35;9.75;;;19.50;52.00;;;;;;5026010;27;114325;-82
2023/09/30 05:54:07;;;;;;;10.52;8.50;;;19.50;51.80;;;;;;5026519;27;115015;-82
2023/09/30 05:56:34;;;;;;;14.80;9.45;;;19.50;51.90;;;;;;5026684;27;114590;-82
2023/09/30 05:59:01;;;;;;;13.02;9.30;;;19.30;52.00;;;;;;5026866;27;114786;-83
2023/09/30 06:01:28;;;;;;;12.27;8.88;;;19.30;52.20;;;;;;5045072;27;114126;-84
2023/09/30 06:03:56;;;;;;;12.18;8.18;;;19.30;52.20;;;;;;5044103;27;115701;-81
2023/09/30 06:06:24;;;;;;;10.20;8.40;;;19.20;52.50;;;;;;5026490;27;114594;-82
2023/09/30 06:08:51;;;;;;;11.98;8.77;;;19.30;52.50;;;;;;5044855;27;114406;-82
2023/09/30 06:11:23;;;;;;;16.23;8.57;;;19.30;52.40;;;;;;5026811;27;114320;-83
2023/09/30 06:13:52;;;;;;;14.57;9.35;;;19.40;52.30;;;;;;5026184;27;115125;-82
2023/09/30 06:16:20;;;;;;;14.07;8.90;;;19.50;52.20;;;;;;5026371;27;114587;-81
2023/09/30 06:18:48;;;;;;;12.13;8.38;;;19.40;52.20;;;;;;4992957;27;114539;-82
2023/09/30 06:21:20;;;;;;;15.98;9.98;;;19.50;52.20;;;;;;5044690;27;114460;-82
2023/09/30 06:23:57;;;;;;;9.30;7.85;;;19.60;52.20;;;;;;5025980;27;114996;-81
2023/09/30 06:26:24;;;;;;;13.20;9.60;;;19.60;52.10;;;;;;5010298;27;114692;-81
2023/09/30 06:28:54;;;;;;;13.73;10.40;;;19.70;52.10;;;;;;5010187;27;114828;-82
2023/09/30 06:31:21;;;;;;;12.00;8.80;;;19.70;52.10;;;;;;5045053;27;114174;-82
2023/09/30 06:33:48;;;;;;;15.63;9.65;;;19.80;51.90;;;;;;5043680;27;114849;-82
2023/09/30 06:36:16;;;;;;;19.02;11.48;;;19.80;51.90;;;;;;5043679;27;114641;-81
2023/09/30 06:38:44;;;;;;;13.50;9.23;;;19.80;52.00;;;;;;5025931;27;114480;-81
2023/09/30 06:41:18;;;;;;;15.57;9.32;;;19.80;51.80;;;;;;5009850;27;114325;-82
2023/09/30 06:43:46;;;;;;;11.93;8.95;;;19.80;51.70;;;;;;5008579;27;116899;-81
2023/09/30 06:46:13;;;;;;;11.85;8.63;;;19.80;51.70;;;;;;5008674;27;116461;-81
2023/09/30 06:48:40;;;;;;;13.27;9.25;;;19.80;51.70;;;;;;5044361;27;114084;-81
2023/09/30 06:51:10;;;;;;;10.88;8.40;;;19.90;51.70;;;;;;5044315;27;114234;-81
2023/09/30 06:53:37;;;;;;;15.50;10.48;;;19.90;51.60;;;;;;5008623;27;116255;-81
2023/09/30 06:56:08;;;;;;;10.07;8.55;;;19.90;52.10;;;;;;5043727;27;114588;-83
2023/09/30 06:58:35;;;;;;;14.52;8.90;;;19.90;51.70;;;;;;5044050;27;114445;-83
2023/09/30 07:01:02;;;;;;;13.45;9.45;;;19.90;51.80;;;;;;5044143;27;114600;-82
2023/09/30 07:03:30;;;;;;;12.25;9.23;;;19.90;51.70;;;;;;5024898;27;114967;-82
2023/09/30 07:06:00;;;;;;;12.65;8.85;;;19.90;51.80;;;;;;5042867;27;116155;-83
2023/09/30 07:08:29;;;;;;;14.63;10.43;;;19.90;51.70;;;;;;5043665;27;114166;-81
2023/09/30 07:10:56;;;;;;;13.82;9.52;;;19.90;52.30;;;;;;5025689;27;114411;-83
2023/09/30 07:13:23;;;;;;;14.50;9.13;;;19.90;52.00;;;;;;5043258;27;114939;-82
2023/09/30 07:15:50;;;;;;;11.82;8.20;;;19.90;52.20;;;;;;5025206;27;115190;-83
2023/09/30 07:18:18;;;;;;;12.95;9.15;;;19.90;52.00;;;;;;5024761;27;114407;-82
2023/09/30 07:20:45;;;;;;;12.30;8.82;;;19.90;52.20;;;;;;5026171;27;114326;-82
2023/09/30 07:23:14;;;;;;;11.80;8.98;;;19.80;52.50;;;;;;5043424;27;114849;-81
2023/09/30 07:25:47;;;;;;;12.02;9.23;;;19.80;52.40;;;;;;5010527;27;115121;-81
2023/09/30 07:28:14;;;;;;;11.85;8.55;;;19.90;52.10;;;;;;5008951;27;114362;-82
2023/09/30 07:30:41;;;;;;;10.23;8.30;;;19.90;52.30;;;;;;5043607;27;114297;-82
2023/09/30 07:33:09;;;;;;;11.40;8.27;;;19.90;52.10;;;;;;5042621;27;118091;-81
2023/09/30 07:35:38;;;;;;;12.30;8.90;;;20.00;52.00;;;;;;5025066;27;114616;-82
2023/09/30 07:38:05;;;;;;;12.98;8.93;;;20.00;52.10;;;;;;5043901;27;114192;-82
2023/09/30 07:40:33;;;;;;;13.63;9.05;;;20.00;52.00;;;;;;5025329;27;114388;-82
2023/09/30 07:43:00;;;;;;;11.43;8.98;;;20.00;52.10;;;;;;4991308;27;117786;-81
2023/09/30 07:45:27;;;;;;;11.55;8.25;;;20.10;52.00;;;;;;5025172;27;114719;-82
2023/09/30 07:47:55;;;;;;;10.95;9.15;;;20.10;52.00;;;;;;4992130;27;114409;-81
2023/09/30 07:50:22;;;;;;;12.25;8.77;;;20.10;52.90;;;;;;5009469;27;114241;-82
2023/09/30 07:52:49;;;;;;;11.05;8.45;;;20.20;52.20;;;;;;5043797;27;115046;-82
2023/09/30 07:55:16;;;;;;;13.63;8.50;;;20.10;52.00;;;;;;5046487;27;114689;-81
2023/09/30 07:57:44;;;;;;;11.82;8.90;;;20.10;52.10;;;;;;5028848;27;114148;-82
2023/09/30 08:00:15;;;;;;;10.88;8.38;;;20.10;52.00;;;;;;5009881;27;114240;-83
2023/09/30 08:02:46;;;;;;;11.38;8.35;;;20.10;52.10;;;;;;5043575;27;115570;-81
2023/09/30 08:05:13;;;;;;;10.60;8.23;;;20.10;52.30;;;;;;5026748;27;115494;-82
2023/09/30 08:07:40;;;;;;;9.20;7.90;;;20.00;52.20;;;;;;5025941;27;114139;-81
2023/09/30 08:10:13;;;;;;;11.75;8.32;;;20.10;52.50;;;;;;5010124;27;114165;-82
2023/09/30 08:12:48;;;;;;;10.98;8.73;;;20.10;52.30;;;;;;5028559;27;114351;-82
2023/09/30 08:15:15;;;;;;;10.35;8.32;;;20.10;52.40;;;;;;5025554;27;115200;-83
2023/09/30 08:17:42;;;;;;;10.68;8.38;;;20.10;52.30;;;;;;5042466;27;114189;-81
2023/09/30 08:20:10;;;;;;;9.57;8.13;;;20.10;52.30;;;;;;5024965;27;114321;-82
2023/09/30 08:22:37;;;;;;;11.30;8.48;;;20.10;52.30;;;;;;5024437;27;115017;-82
2023/09/30 08:25:06;;;;;;;10.05;7.55;;;20.10;52.50;;;;;;5042252;27;115089;-81
2023/09/30 08:27:33;;;;;;;10.85;8.10;;;20.10;52.40;;;;;;5042922;27;114193;-81
2023/09/30 08:30:04;;;;;;;13.02;9.77;;;20.10;53.00;;;;;;5026359;27;114298;-82
2023/09/30 08:32:35;;;;;;;10.65;9.55;;;20.10;54.50;;;;;;5026718;27;115799;-82
2023/09/30 08:35:03;;;;;;;10.50;8.30;;;19.90;55.00;;;;;;5027820;27;114639;-82
2023/09/30 08:37:31;;;;;;;10.23;8.93;;;19.80;54.40;;;;;;5028357;27;114161;-82
2023/09/30 08:40:04;;;;;;;12.15;9.23;;;19.80;55.90;;;;;;5011786;27;114376;-82
2023/09/30 08:42:33;;;;;;;11.85;9.38;;;19.70;55.30;;;;;;5026907;27;115004;-82
2023/09/30 08:45:03;;;;;;;13.25;10.40;;;19.70;55.20;;;;;;5045194;27;115188;-81
2023/09/30 08:47:30;;;;;;;11.27;9.27;;;19.70;56.60;;;;;;5028167;27;114248;-82
2023/09/30 08:50:05;;;;;;;12.07;9.00;;;19.70;55.10;;;;;;5028164;27;114289;-83
2023/09/30 08:52:34;;;;;;;11.75;9.98;;;19.70;54.60;;;;;;5045356;27;115417;-82
2023/09/30 08:55:09;;;;;;;11.30;9.13;;;19.70;55.50;;;;;;5011860;27;115152;-81
2023/09/30 08:57:39;;;;;;;12.82;10.05;;;19.70;54.80;;;;;;5046032;27;114388;-81
2023/09/30 09:00:11;;;;;;;13.85;11.25;;;19.70;55.60;;;;;;5046433;27;114216;-81
2023/09/30 09:02:42;;;;;;;12.90;10.77;;;19.70;57.10;;;;;;5027153;27;115352;-81
2023/09/30 09:05:09;;;;;;;12.02;10.73;;;19.70;56.30;;;;;;5045240;27;114584;-82
2023/09/30 09:07:36;;;;;;;12.70;10.05;;;19.70;55.60;;;;;;5045381;27;114037;-82
2023/09/30 09:10:05;;;;;;;13.55;11.68;;;19.80;56.00;;;;;;5027583;27;114178;-82
2023/09/30 09:12:39;;;;;;;12.80;10.38;;;19.80;57.60;;;;;;5026495;27;114926;-82
2023/09/30 09:15:07;;;;;;;13.05;10.27;;;19.70;56.00;;;;;;5026775;27;116418;-82
2023/09/30 09:17:42;;;;;;;14.23;11.23;;;19.70;56.20;;;;;;5045852;27;114136;-82
2023/09/30 09:20:20;;;;;;;13.60;11.35;;;19.80;57.70;;;;;;5010908;27;114227;-82
2023/09/30 09:22:52;;;;;;;12.13;10.20;;;19.70;57.30;;;;;;5044867;27;115191;-82
2023/09/30 09:25:22;;;;;;;14.20;10.70;;;19.70;55.90;;;;;;5027189;27;114811;-83
2023/09/30 09:27:51;;;;;;;14.88;11.18;;;19.70;56.00;;;;;;5010315;27;114403;-82
2023/09/30 09:30:25;;;;;;;12.57;9.95;;;19.70;56.30;;;;;;5011181;27;114184;-82
2023/09/30 09:33:02;;;;;;;12.70;10.35;;;19.60;55.90;;;;;;5026298;27;114819;-84
2023/09/30 09:35:32;;;;;;;11.60;9.80;;;19.60;56.10;;;;;;5044432;27;115166;-83
2023/09/30 09:38:03;;;;;;;12.98;10.00;;;19.60;57.40;;;;;;5045506;27;114458;-82
2023/09/30 09:40:34;;;;;;;14.52;10.77;;;19.70;56.00;;;;;;5044939;27;114217;-82
2023/09/30 09:43:05;;;;;;;12.65;10.00;;;19.70;57.30;;;;;;5044284;27;116921;-83
2023/09/30 09:45:34;;;;;;;11.40;9.68;;;19.80;56.00;;;;;;5025392;27;115244;-82
2023/09/30 09:48:01;;;;;;;12.00;10.02;;;19.80;56.20;;;;;;5045420;27;114409;-82
2023/09/30 09:50:29;;;;;;;12.20;9.85;;;19.80;56.00;;;;;;5027318;27;114202;-82
2023/09/30 09:52:58;;;;;;;13.70;10.80;;;19.80;56.90;;;;;;5026263;27;115211;-81
2023/09/30 09:55:29;;;;;;;12.98;9.25;;;19.80;57.30;;;;;;5010957;27;114693;-83
2023/09/30 09:57:56;;;;;;;12.48;10.65;;;19.80;56.40;;;;;;5044277;27;114073;-82
2023/09/30 10:00:25;;;;;;;13.77;12.38;;;19.80;57.50;;;;;;4993971;27;114545;-83
2023/09/30 10:02:52;;;;;;;11.90;10.02;;;19.80;58.60;;;;;;5008598;27;117481;-82
2023/09/30 10:05:20;;;;;;;13.23;11.38;;;19.80;57.70;;;;;;5044278;27;114865;-81
2023/09/30 10:07:51;;;;;;;12.98;10.18;;;19.80;57.50;;;;;;5044936;27;114297;-82
2023/09/30 10:10:19;;;;;;;14.60;12.57;;;19.80;56.70;;;;;;5012174;27;114324;-82
2023/09/30 10:12:48;;;;;;;12.60;10.77;;;19.80;59.00;;;;;;5010901;27;115175;-81
2023/09/30 10:15:24;;;;;;;13.27;10.93;;;19.80;57.50;;;;;;5026761;27;114690;-83
2023/09/30 10:18:04;;;;;;;13.35;10.13;;;19.80;56.90;;;;;;5026137;27;114376;-82
2023/09/30 10:20:32;;;;;;;11.70;10.10;;;19.80;56.50;;;;;;5044789;27;114322;-82
2023/09/30 10:23:17;;;;;;;10.75;9.65;;;19.80;57.50;;;;;;5011497;27;114957;-82
2023/09/30 10:25:49;;;;;;;16.08;13.93;;;19.90;56.70;;;;;;5046361;27;114794;-83
2023/09/30 10:28:37;;;;;;;14.50;11.75;;;19.80;59.80;;;;;;5026803;27;114361;-82
2023/09/30 10:31:19;;;;;;;12.43;10.10;;;19.80;57.50;;;;;;5027362;27;114474;-82
2023/09/30 10:34:07;;;;;;;12.85;11.45;;;19.80;57.10;;;;;;5025924;27;114919;-86
2023/09/30 10:36:38;;;;;;;12.85;11.43;;;19.80;57.40;;;;;;5026601;27;114801;-81
2023/09/30 10:39:08;;;;;;;16.52;11.63;;;19.80;58.10;;;;;;5044527;27;114162;-82
2023/09/30 10:41:38;;;;;;;15.93;12.00;;;19.70;58.00;;;;;;5027408;27;114386;-81
2023/09/30 10:44:25;;;;;;;12.82;11.50;;;19.80;56.90;;;;;;5043631;27;114969;-82
2023/09/30 10:46:52;;;;;;;12.73;11.43;;;19.80;58.00;;;;;;5025331;27;114898;-82
2023/09/30 10:49:22;;;;;;;14.27;12.48;;;19.70;57.30;;;;;;5025794;27;114335;-81
2023/09/30 10:51:53;;;;;;;13.23;11.82;;;19.80;57.00;;;;;;5043811;27;114293;-81
2023/09/30 10:54:24;;;;;;;14.80;12.80;;;19.80;58.10;;;;;;5009097;27;115753;-82
2023/09/30 10:56:52;;;;;;;15.60;11.75;;;19.80;59.00;;;;;;5025543;27;114752;-81
2023/09/30 10:59:22;;;;;;;13.90;11.73;;;19.80;58.30;;;;;;5045367;27;114380;-82
2023/09/30 11:01:49;;;;;;;14.52;12.80;;;19.80;60.00;;;;;;5027005;27;114794;-82
2023/09/30 11:04:18;;;;;;;14.13;10.82;;;19.70;59.40;;;;;;5043654;27;115455;-82
2023/09/30 11:06:45;;;;;;;15.93;12.90;;;19.70;58.80;;;;;;5043963;27;114650;-81
2023/09/30 11:09:16;;;;;;;13.13;11.38;;;19.70;57.90;;;;;;5009587;27;114366;-82
2023/09/30 11:11:51;;;;;;;11.40;9.88;;;19.70;60.60;;;;;;5043878;27;114447;-83
2023/09/30 11:14:29;;;;;;;12.10;10.27;;;19.70;60.90;;;;;;5007696;27;116024;-82
2023/09/30 11:17:04;;;;;;;9.27;8.10;;;19.50;59.50;;;;;;5008885;27;117901;-82
2023/09/30 11:19:47;;;;;;;;;;;19.40;60.60;;;;;;5026458;27;114381;-83
2023/09/30 11:22:15;;;;;;;11.18;9.23;;;19.20;59.00;;;;;;5026047;27;114545;-81
2023/09/30 11:24:42;;;;;;;11.15;8.40;;;19.10;60.90;;;;;;5008556;27;114880;-82
2023/09/30 11:27:09;;;;;;;9.15;8.20;;;19.10;61.90;;;;;;5024921;27;114815;-81
2023/09/30 11:29:36;;;;;;;9.27;8.30;;;19.00;62.20;;;;;;5025698;27;114313;-81
2023/09/30 11:32:03;;;;;;;11.80;8.65;;;18.80;62.80;;;;;;5026105;27;114402;-82
2023/09/30 11:34:32;;;;;;;13.48;10.60;;;18.60;63.30;;;;;;5042728;27;115535;-81
2023/09/30 11:37:00;;;;;;;11.13;9.60;;;18.50;62.90;;;;;;5024981;27;114719;-81
2023/09/30 11:39:28;;;;;;;9.75;7.53;;;18.40;63.50;;;;;;5025328;27;114245;-81
2023/09/30 11:41:57;;;;;;;10.05;8.15;;;18.30;64.50;;;;;;5008916;27;114373;-82
2023/09/30 11:44:26;;;;;;;7.65;6.85;;;18.30;63.90;;;;;;5008733;27;114992;-81
2023/09/30 11:47:00;;;;;;;10.75;9.57;;;18.30;64.70;;;;;;5042839;27;114758;-80
2023/09/30 11:49:31;;;;;;;8.18;6.32;;;18.30;63.20;;;;;;5025733;27;114435;-81
2023/09/30 11:52:17;;;;;;;9.40;8.43;;;18.20;64.60;;;;;;5025330;27;114375;-81
2023/09/30 11:54:44;;;;;;;8.23;7.43;;;18.30;63.30;;;;;;4991004;27;116282;-82
2023/09/30 11:57:16;;;;;;;9.75;7.72;;;18.20;64.30;;;;;;5025078;27;115217;-81
2023/09/30 11:59:46;;;;;;;6.88;6.13;;;18.20;64.20;;;;;;5043411;27;114256;-81
2023/09/30 12:02:17;;;;;;;8.30;7.43;;;18.30;64.90;;;;;;5008903;27;114267;-81
2023/09/30 12:04:47;;;;;;;9.48;8.45;;;18.30;64.90;;;;;;5027129;27;115463;-81
2023/09/30 12:07:14;;;;;;;9.40;7.28;;;18.20;63.90;;;;;;4995224;27;116419;-82
2023/09/30 12:09:42;;;;;;;9.75;8.23;;;18.10;64.90;;;;;;5046821;27;114079;-81
2023/09/30 12:12:10;;;;;;;10.77;8.00;;;18.00;64.60;;;;;;5046594;27;114362;-82
2023/09/30 12:14:38;;;;;;;10.45;8.30;;;17.90;64.70;;;;;;5046089;27;115201;-82
2023/09/30 12:17:06;;;;;;;10.93;8.23;;;17.90;64.10;;;;;;5045950;27;114688;-82
2023/09/30 12:19:33;;;;;;;10.93;7.57;;;17.90;65.00;;;;;;5025011;28;114281;-82
2023/09/30 12:22:00;;;;;;;10.55;8.15;;;17.80;64.70;;;;;;5026947;28;114256;-81
2023/09/30 12:24:27;;;;;;;10.27;7.90;;;17.90;64.70;;;;;;5025501;28;114964;-81
2023/09/30 12:26:55;;;;;;;8.98;6.63;;;18.10;65.00;;;;;;5025545;27;114836;-81
2023/09/30 12:29:23;;;;;;;9.38;7.00;;;18.20;64.10;;;;;;5024583;28;114519;-81
2023/09/30 12:31:52;;;;;;;9.88;6.93;;;18.20;63.00;;;;;;4992077;28;114585;-83
2023/09/30 12:34:25;;;;;;;11.32;7.40;;;18.30;64.00;;;;;;5023928;28;115451;-81